KLM987 EDDF-EDDE
Flight info
| Callsign | KLM987 |
|---|---|
| Flight time | N/A |
| Altitude | 21000 |
| Route | TOBAK8M/25C TOBAK N858 ERSET T211 ROBEL ROBEL1R |
| Aircraft | B738/M-SDE2E3FGHIRWXY/LB1 |
Departure
| Time | 2026-05-05 11:45 |
|---|---|
| Airport | Frankfurt Main Airport (EDDF) |
Arrival
| Time | N/A |
|---|---|
| Airport | Erfurt-Weimar Airport (EDDE) |
| Time | Latitude | Longitude | Altitude | Speed | Heading |
|---|---|---|---|---|---|
| 2026-05-05 11:07 | 50.04986 | 8.58446 | 362 ft | 0 kts | 317° |
| 2026-05-05 11:08 | 50.04987 | 8.58446 | 362 ft | 0 kts | 317° |
| 2026-05-05 11:14 | 50.04987 | 8.58445 | 362 ft | 0 kts | 317° |
| 2026-05-05 11:32 | 50.04985 | 8.58448 | 358 ft | 3 kts | 317° |
| 2026-05-05 11:32 | 50.04965 | 8.58476 | 359 ft | 4 kts | 320° |
| 2026-05-05 11:33 | 50.04947 | 8.58499 | 361 ft | 3 kts | 323° |
| 2026-05-05 11:33 | 50.04926 | 8.58512 | 362 ft | 4 kts | 19° |
| 2026-05-05 11:33 | 50.04908 | 8.58489 | 360 ft | 4 kts | 65° |
| 2026-05-05 11:33 | 50.04905 | 8.58480 | 359 ft | 0 kts | 69° |
| 2026-05-05 11:38 | 50.04909 | 8.58497 | 358 ft | 4 kts | 69° |
| 2026-05-05 11:38 | 50.04927 | 8.58570 | 360 ft | 10 kts | 68° |
| 2026-05-05 11:38 | 50.04913 | 8.58667 | 359 ft | 10 kts | 148° |
| 2026-05-05 11:38 | 50.04859 | 8.58701 | 366 ft | 0 kts | 160° |
| 2026-05-05 11:39 | 50.04847 | 8.58708 | 363 ft | 5 kts | 160° |
| 2026-05-05 11:40 | 50.04813 | 8.58727 | 366 ft | 5 kts | 159° |
| 2026-05-05 11:40 | 50.04780 | 8.58747 | 365 ft | 5 kts | 161° |
| 2026-05-05 11:40 | 50.04757 | 8.58759 | 368 ft | 5 kts | 160° |
| 2026-05-05 11:40 | 50.04723 | 8.58771 | 368 ft | 5 kts | 178° |
| 2026-05-05 11:41 | 50.04692 | 8.58767 | 369 ft | 0 kts | 187° |
| 2026-05-05 11:42 | 50.04687 | 8.58766 | 369 ft | 5 kts | 187° |
| 2026-05-05 11:42 | 50.04623 | 8.58752 | 369 ft | 12 kts | 194° |
| 2026-05-05 11:42 | 50.04553 | 8.58679 | 370 ft | 8 kts | 213° |
| 2026-05-05 11:43 | 50.04503 | 8.58646 | 370 ft | 7 kts | 234° |
| 2026-05-05 11:43 | 50.04496 | 8.58623 | 370 ft | 0 kts | 246° |
| 2026-05-05 11:45 | 50.04452 | 8.58439 | 369 ft | 63 kts | 250° |
| 2026-05-05 11:45 | 50.04181 | 8.57291 | 371 ft | 158 kts | 247° |
| 2026-05-05 11:45 | 50.03725 | 8.55384 | 830 ft | 203 kts | 253° |
| 2026-05-05 11:45 | 50.03283 | 8.53121 | 1628 ft | 233 kts | 254° |
| 2026-05-05 11:46 | 50.02788 | 8.50645 | 2593 ft | 246 kts | 249° |
| 2026-05-05 11:46 | 50.01827 | 8.48439 | 3344 ft | 253 kts | 221° |
| 2026-05-05 11:46 | 50.00263 | 8.47100 | 3807 ft | 264 kts | 195° |
| 2026-05-05 11:46 | 49.98404 | 8.46882 | 3940 ft | 269 kts | 178° |
| 2026-05-05 11:47 | 49.96599 | 8.46886 | 4607 ft | 259 kts | 185° |
| 2026-05-05 11:47 | 49.94743 | 8.46482 | 4644 ft | 284 kts | 194° |
| 2026-05-05 11:47 | 49.92887 | 8.45405 | 5392 ft | 281 kts | 208° |
| 2026-05-05 11:47 | 49.91439 | 8.43526 | 6340 ft | 268 kts | 232° |
| 2026-05-05 11:48 | 49.91240 | 8.38067 | 6527 ft | 273 kts | 296° |
| 2026-05-05 11:48 | 49.92508 | 8.35843 | 6643 ft | 281 kts | 324° |
| 2026-05-05 11:48 | 49.94275 | 8.34430 | 6852 ft | 282 kts | 336° |
| 2026-05-05 11:49 | 49.96069 | 8.33299 | 7233 ft | 284 kts | 338° |
| 2026-05-05 11:49 | 49.97912 | 8.32161 | 7776 ft | 285 kts | 337° |
| 2026-05-05 11:49 | 49.99787 | 8.30968 | 8437 ft | 290 kts | 336° |
| 2026-05-05 11:49 | 50.01663 | 8.29749 | 9096 ft | 294 kts | 336° |
| 2026-05-05 11:50 | 50.03568 | 8.28536 | 9772 ft | 298 kts | 341° |
| 2026-05-05 11:50 | 50.05624 | 8.28249 | 10322 ft | 300 kts | 9° |
| 2026-05-05 11:50 | 50.07642 | 8.29087 | 10956 ft | 303 kts | 18° |
| 2026-05-05 11:50 | 50.09659 | 8.30158 | 11583 ft | 308 kts | 20° |
| 2026-05-05 11:51 | 50.11692 | 8.31270 | 12214 ft | 311 kts | 20° |
| 2026-05-05 11:51 | 50.13744 | 8.32386 | 12795 ft | 314 kts | 19° |